Time;durP1;ratioP1;P1;durP2;ratioP2;P2;SDS_P1;SDS_P2;PMS_P1;PMS_P2;Temp;Humidity;BMP_temperature;BMP_pressure;BME280_temperature;BME280_humidity;BME280_pressure;Samples;Min_cycle;Max_cycle;Signal;HPM_P1;HPM_P2
2024/01/29 00:01:49;;;;;;;9.48;4.10;;;;;;;;;;5072029;28;20028;-66
2024/01/29 00:04:15;;;;;;;11.20;3.60;;;;;;;;;;5071969;28;20585;-66
2024/01/29 00:06:41;;;;;;;8.52;3.45;;;;;;;;;;5073147;28;20482;-67
2024/01/29 00:09:07;;;;;;;11.23;3.72;;;;;;;;;;5073186;28;20036;-65
2024/01/29 00:11:36;;;;;;;11.18;3.58;;;;;;;;;;5073930;28;20021;-68
2024/01/29 00:14:02;;;;;;;7.60;3.40;;;;;;;;;;5073541;28;20076;-67
2024/01/29 00:16:28;;;;;;;9.93;3.60;;;;;;;;;;5043718;28;20547;-61
2024/01/29 00:18:54;;;;;;;11.45;4.13;;;;;;;;;;5069217;28;20108;-61
2024/01/29 00:21:20;;;;;;;6.63;3.30;;;;;;;;;;5059559;28;20028;-62
2024/01/29 00:23:45;;;;;;;9.55;3.15;;;;;;;;;;5072695;28;20036;-60
2024/01/29 00:26:12;;;;;;;12.82;4.18;;;;;;;;;;5046425;28;20037;-58
2024/01/29 00:28:38;;;;;;;9.38;4.18;;;;;;;;;;5072898;28;20482;-58
2024/01/29 00:31:04;;;;;;;7.72;3.70;;;;;;;;;;5065006;28;20037;-58
2024/01/29 00:33:30;;;;;;;8.15;3.92;;;;;;;;;;5051647;28;20111;-60
2024/01/29 00:35:57;;;;;;;8.32;3.55;;;;;;;;;;5066171;28;20036;-60
2024/01/29 00:38:23;;;;;;;10.27;4.20;;;;;;;;;;5072973;28;20021;-58
2024/01/29 00:40:49;;;;;;;11.50;3.75;;;;;;;;;;5072977;28;20028;-60
2024/01/29 00:43:15;;;;;;;8.20;3.47;;;;;;;;;;5072746;28;20090;-58
2024/01/29 00:45:41;;;;;;;8.23;3.65;;;;;;;;;;5072075;28;20108;-58
2024/01/29 00:48:07;;;;;;;7.93;4.20;;;;;;;;;;5058765;28;20033;-62
2024/01/29 00:50:33;;;;;;;6.75;3.75;;;;;;;;;;5071512;28;20528;-56
2024/01/29 00:52:59;;;;;;;9.43;3.47;;;;;;;;;;5072252;28;20032;-58
2024/01/29 00:55:25;;;;;;;11.23;3.70;;;;;;;;;;5054703;28;20016;-58
2024/01/29 00:57:51;;;;;;;11.77;4.22;;;;;;;;;;5070645;28;20078;-58
2024/01/29 01:00:17;;;;;;;10.98;3.33;;;;;;;;;;5072947;28;20032;-58
2024/01/29 01:02:43;;;;;;;12.93;3.80;;;;;;;;;;5065832;28;20094;-58
2024/01/29 01:05:09;;;;;;;10.07;3.83;;;;;;;;;;5068080;28;20031;-59
2024/01/29 01:07:35;;;;;;;9.57;3.90;;;;;;;;;;5070942;28;20690;-56
2024/01/29 01:10:03;;;;;;;8.73;3.80;;;;;;;;;;5072083;28;20036;-56
2024/01/29 01:12:29;;;;;;;14.63;4.10;;;;;;;;;;5071293;28;20059;-59
2024/01/29 01:14:55;;;;;;;17.40;4.10;;;;;;;;;;5072098;28;20044;-58
2024/01/29 01:17:21;;;;;;;12.10;3.90;;;;;;;;;;5061868;28;20029;-58
2024/01/29 01:19:47;;;;;;;8.55;3.83;;;;;;;;;;5063531;28;20056;-55
2024/01/29 01:22:14;;;;;;;9.38;3.10;;;;;;;;;;5071543;28;20081;-56
2024/01/29 01:24:40;;;;;;;9.60;3.97;;;;;;;;;;5070750;28;20387;-55
2024/01/29 01:27:06;;;;;;;10.52;3.40;;;;;;;;;;5066591;28;20028;-66
2024/01/29 01:29:32;;;;;;;12.30;3.70;;;;;;;;;;5069308;28;20029;-66
2024/01/29 01:31:58;;;;;;;10.43;4.20;;;;;;;;;;5070861;28;20039;-65
2024/01/29 01:34:24;;;;;;;9.02;3.47;;;;;;;;;;5072171;28;20025;-66
2024/01/29 01:36:50;;;;;;;14.18;3.72;;;;;;;;;;5072264;28;20107;-62
2024/01/29 01:39:16;;;;;;;6.32;3.80;;;;;;;;;;5072119;28;20033;-59
2024/01/29 01:41:51;;;;;;;8.30;3.60;;;;;;;;;;5070995;28;20044;-60
2024/01/29 01:44:17;;;;;;;10.50;3.97;;;;;;;;;;5071860;28;20048;-60
2024/01/29 01:46:43;;;;;;;7.65;3.40;;;;;;;;;;5071836;28;20565;-60
2024/01/29 01:49:09;;;;;;;13.35;4.40;;;;;;;;;;5071876;28;20036;-60
2024/01/29 01:51:35;;;;;;;6.95;3.22;;;;;;;;;;5071758;28;20021;-62
2024/01/29 01:54:03;;;;;;;10.35;3.85;;;;;;;;;;5062468;28;20052;-60
2024/01/29 01:56:29;;;;;;;11.68;3.28;;;;;;;;;;5067886;28;20021;-63
2024/01/29 01:58:55;;;;;;;13.20;3.97;;;;;;;;;;5065080;28;20494;-60
2024/01/29 02:01:21;;;;;;;8.02;3.75;;;;;;;;;;5071831;28;20493;-56
2024/01/29 02:03:47;;;;;;;13.57;3.45;;;;;;;;;;5066944;28;20106;-57
2024/01/29 02:06:13;;;;;;;11.82;3.72;;;;;;;;;;5072317;28;20028;-57
2024/01/29 02:08:40;;;;;;;13.25;4.13;;;;;;;;;;5069879;28;20025;-57
2024/01/29 02:11:06;;;;;;;11.65;4.18;;;;;;;;;;5071044;28;20024;-56
2024/01/29 02:13:32;;;;;;;5.78;3.17;;;;;;;;;;5068773;28;20181;-59
2024/01/29 02:15:58;;;;;;;10.25;3.95;;;;;;;;;;5052387;28;20036;-56
2024/01/29 02:18:24;;;;;;;8.02;3.83;;;;;;;;;;5060827;28;20016;-56
2024/01/29 02:20:50;;;;;;;13.98;4.30;;;;;;;;;;5066517;28;20389;-56
2024/01/29 02:23:16;;;;;;;12.23;5.28;;;;;;;;;;5070539;28;20380;-56
2024/01/29 02:25:41;;;;;;;11.00;4.15;;;;;;;;;;5070691;28;20095;-56
2024/01/29 02:28:07;;;;;;;9.82;3.72;;;;;;;;;;5049989;28;21693;-57
2024/01/29 02:30:33;;;;;;;9.82;3.92;;;;;;;;;;5067601;28;20029;-57
2024/01/29 02:32:59;;;;;;;9.95;3.58;;;;;;;;;;5053018;28;20025;-57
2024/01/29 02:35:25;;;;;;;13.45;4.28;;;;;;;;;;5052708;28;20016;-56
2024/01/29 02:37:51;;;;;;;10.02;3.88;;;;;;;;;;5070247;28;20035;-56
2024/01/29 02:40:17;;;;;;;9.93;3.92;;;;;;;;;;5070230;28;20028;-55
2024/01/29 02:42:43;;;;;;;7.15;3.70;;;;;;;;;;5070612;28;20104;-57
2024/01/29 02:45:09;;;;;;;13.35;4.18;;;;;;;;;;5070781;28;20040;-59
2024/01/29 02:47:35;;;;;;;11.50;4.28;;;;;;;;;;5070667;28;20104;-57
2024/01/29 02:50:01;;;;;;;11.20;4.38;;;;;;;;;;5069014;28;20102;-58
2024/01/29 02:52:28;;;;;;;16.45;4.28;;;;;;;;;;5069554;28;20021;-56
2024/01/29 02:54:54;;;;;;;13.40;4.00;;;;;;;;;;5071416;28;20386;-56
2024/01/29 02:57:23;;;;;;;9.13;4.22;;;;;;;;;;5046982;28;20024;-57
2024/01/29 02:59:50;;;;;;;10.25;4.28;;;;;;;;;;5068024;28;20036;-56
2024/01/29 03:02:16;;;;;;;10.88;4.30;;;;;;;;;;5070161;28;20028;-56
2024/01/29 03:04:42;;;;;;;11.25;3.90;;;;;;;;;;5071423;28;20029;-56
2024/01/29 03:07:08;;;;;;;15.90;4.70;;;;;;;;;;5069915;28;20105;-58
2024/01/29 03:09:35;;;;;;;11.25;4.13;;;;;;;;;;5070458;28;20170;-56
2024/01/29 03:12:01;;;;;;;12.40;4.40;;;;;;;;;;5069458;28;20036;-58
2024/01/29 03:14:27;;;;;;;9.48;4.78;;;;;;;;;;5072919;28;20041;-56
2024/01/29 03:16:53;;;;;;;9.75;4.22;;;;;;;;;;5073411;28;20028;-56
2024/01/29 03:19:19;;;;;;;13.50;4.47;;;;;;;;;;5074073;28;20028;-58
2024/01/29 03:21:45;;;;;;;14.93;5.30;;;;;;;;;;5074363;28;20024;-56
2024/01/29 03:24:11;;;;;;;9.60;4.43;;;;;;;;;;5067782;28;20030;-58
2024/01/29 03:26:37;;;;;;;11.40;4.65;;;;;;;;;;5071206;28;20495;-58
2024/01/29 03:29:03;;;;;;;14.57;4.85;;;;;;;;;;5055559;28;20036;-57
2024/01/29 03:31:29;;;;;;;12.55;4.40;;;;;;;;;;5075211;28;20021;-56
2024/01/29 03:33:55;;;;;;;12.68;4.13;;;;;;;;;;5062075;28;20029;-57
2024/01/29 03:36:21;;;;;;;10.13;4.18;;;;;;;;;;5075038;28;20063;-57
2024/01/29 03:38:47;;;;;;;17.10;4.28;;;;;;;;;;5073801;28;20024;-56
2024/01/29 03:41:13;;;;;;;10.45;4.40;;;;;;;;;;5040962;28;20104;-56
2024/01/29 03:43:39;;;;;;;15.65;4.93;;;;;;;;;;5072783;28;20675;-58
2024/01/29 03:46:05;;;;;;;13.13;4.10;;;;;;;;;;5073846;28;20020;-56
2024/01/29 03:48:31;;;;;;;9.30;4.03;;;;;;;;;;5080130;28;20024;-58
2024/01/29 03:50:57;;;;;;;13.05;5.15;;;;;;;;;;5074597;28;20043;-56
2024/01/29 03:53:23;;;;;;;16.50;5.20;;;;;;;;;;5073725;28;20021;-56
2024/01/29 03:55:49;;;;;;;14.82;4.47;;;;;;;;;;5074567;28;20020;-59
2024/01/29 03:58:15;;;;;;;10.07;4.07;;;;;;;;;;5074585;28;20043;-57
2024/01/29 04:00:41;;;;;;;14.63;5.07;;;;;;;;;;5072479;28;20513;-58
2024/01/29 04:03:07;;;;;;;14.75;4.20;;;;;;;;;;5054688;28;20680;-55
2024/01/29 04:05:33;;;;;;;14.85;4.30;;;;;;;;;;5068612;28;20028;-56
2024/01/29 04:08:00;;;;;;;13.70;4.70;;;;;;;;;;5038785;28;20032;-56
2024/01/29 04:10:26;;;;;;;13.50;4.53;;;;;;;;;;5071356;28;20039;-56
2024/01/29 04:12:52;;;;;;;11.05;4.55;;;;;;;;;;5073349;28;20104;-56
2024/01/29 04:15:18;;;;;;;10.13;4.68;;;;;;;;;;5058909;28;20052;-56
2024/01/29 04:17:44;;;;;;;14.63;4.88;;;;;;;;;;5070491;28;20082;-58
2024/01/29 04:20:10;;;;;;;7.93;4.22;;;;;;;;;;5073385;28;20029;-60
2024/01/29 04:22:36;;;;;;;14.43;5.20;;;;;;;;;;5072860;28;20033;-59
2024/01/29 04:25:06;;;;;;;14.82;4.63;;;;;;;;;;5072041;28;20070;-59
2024/01/29 04:27:32;;;;;;;12.70;5.15;;;;;;;;;;5073332;28;20028;-58
2024/01/29 04:30:00;;;;;;;9.60;4.55;;;;;;;;;;5055257;28;20461;-57
2024/01/29 04:32:26;;;;;;;9.05;5.13;;;;;;;;;;5072438;28;20470;-57
2024/01/29 04:34:52;;;;;;;15.90;4.55;;;;;;;;;;5069432;28;20025;-59
2024/01/29 04:37:18;;;;;;;20.00;5.13;;;;;;;;;;5055191;28;20124;-60
2024/01/29 04:39:44;;;;;;;13.00;4.70;;;;;;;;;;5071681;28;20044;-58
2024/01/29 04:42:10;;;;;;;15.32;4.93;;;;;;;;;;5071920;28;20466;-60
2024/01/29 04:44:36;;;;;;;12.70;5.43;;;;;;;;;;5069473;28;20036;-57
2024/01/29 04:47:02;;;;;;;10.80;4.63;;;;;;;;;;5068480;28;20052;-58
2024/01/29 04:49:28;;;;;;;13.98;5.07;;;;;;;;;;5066080;28;20032;-58
2024/01/29 04:51:54;;;;;;;10.27;4.85;;;;;;;;;;5071855;28;20588;-58
2024/01/29 04:54:20;;;;;;;13.65;4.80;;;;;;;;;;5073256;28;20021;-57
2024/01/29 04:56:46;;;;;;;12.20;4.90;;;;;;;;;;5065548;28;20082;-58
2024/01/29 04:59:12;;;;;;;14.40;5.20;;;;;;;;;;5061719;28;20062;-58
2024/01/29 05:01:38;;;;;;;13.20;5.35;;;;;;;;;;5062702;28;20025;-57
2024/01/29 05:04:04;;;;;;;12.10;4.57;;;;;;;;;;5062754;28;20041;-57
2024/01/29 05:06:30;;;;;;;11.80;5.07;;;;;;;;;;5071154;28;20021;-58
2024/01/29 05:08:56;;;;;;;11.73;4.90;;;;;;;;;;5065109;28;20035;-57
2024/01/29 05:11:23;;;;;;;15.18;4.97;;;;;;;;;;5067170;28;20107;-62
2024/01/29 05:13:49;;;;;;;11.70;4.82;;;;;;;;;;5069823;28;20043;-57
2024/01/29 05:16:15;;;;;;;12.93;4.90;;;;;;;;;;5071348;28;20024;-62
2024/01/29 05:18:41;;;;;;;11.40;4.43;;;;;;;;;;5068589;28;20440;-57
2024/01/29 05:21:07;;;;;;;15.73;4.88;;;;;;;;;;5064744;28;20025;-58
2024/01/29 05:23:34;;;;;;;12.50;4.50;;;;;;;;;;5067001;28;20033;-59
2024/01/29 05:25:59;;;;;;;17.08;5.90;;;;;;;;;;5067885;28;20029;-57
2024/01/29 05:28:25;;;;;;;11.38;4.63;;;;;;;;;;5072438;28;20086;-57
2024/01/29 05:30:52;;;;;;;11.48;5.22;;;;;;;;;;5056159;28;20107;-57
2024/01/29 05:33:18;;;;;;;10.50;5.60;;;;;;;;;;5066374;28;20107;-57
2024/01/29 05:35:44;;;;;;;13.02;5.13;;;;;;;;;;5068472;28;20056;-61
2024/01/29 05:38:10;;;;;;;15.40;5.78;;;;;;;;;;5065682;28;20497;-57
2024/01/29 05:40:36;;;;;;;10.40;4.40;;;;;;;;;;5070583;28;20025;-57
2024/01/29 05:43:02;;;;;;;10.95;5.30;;;;;;;;;;5071915;28;20473;-57
2024/01/29 05:45:28;;;;;;;15.35;5.13;;;;;;;;;;5069304;28;20028;-57
2024/01/29 05:47:54;;;;;;;10.90;5.15;;;;;;;;;;5070685;28;20031;-57
2024/01/29 05:50:19;;;;;;;14.73;5.40;;;;;;;;;;5066238;28;20062;-61
2024/01/29 05:52:46;;;;;;;10.48;4.90;;;;;;;;;;5067827;28;20029;-58
2024/01/29 05:55:12;;;;;;;13.45;6.22;;;;;;;;;;5061711;28;20032;-58
2024/01/29 05:57:38;;;;;;;10.77;4.90;;;;;;;;;;5066913;28;20028;-58
2024/01/29 06:00:09;;;;;;;16.33;6.40;;;;;;;;;;5067544;28;20033;-58
2024/01/29 06:02:39;;;;;;;15.98;7.38;;;;;;;;;;5060729;28;20146;-59
2024/01/29 06:05:05;;;;;;;15.85;8.95;;;;;;;;;;5066009;28;20112;-57
2024/01/29 06:07:31;;;;;;;18.50;10.50;;;;;;;;;;5063180;28;20115;-57
2024/01/29 06:09:57;;;;;;;12.63;5.22;;;;;;;;;;5062797;28;20037;-57
2024/01/29 06:12:23;;;;;;;11.85;4.78;;;;;;;;;;5066310;28;20025;-59
2024/01/29 06:14:49;;;;;;;15.23;5.38;;;;;;;;;;5068573;28;20068;-57
2024/01/29 06:17:15;;;;;;;12.45;5.68;;;;;;;;;;5069577;28;20487;-57
2024/01/29 06:19:41;;;;;;;14.70;5.15;;;;;;;;;;5061231;28;20098;-59
2024/01/29 06:22:07;;;;;;;13.00;5.32;;;;;;;;;;5070587;28;20050;-58
2024/01/29 06:24:33;;;;;;;14.35;5.00;;;;;;;;;;5071342;28;20033;-61
2024/01/29 06:26:59;;;;;;;12.10;5.30;;;;;;;;;;5068865;28;20032;-58
2024/01/29 06:29:25;;;;;;;10.70;4.97;;;;;;;;;;5066732;28;20044;-57
2024/01/29 06:31:51;;;;;;;14.90;5.30;;;;;;;;;;5065146;28;20166;-57
2024/01/29 06:34:17;;;;;;;12.02;5.45;;;;;;;;;;5064358;28;20103;-57
2024/01/29 06:36:43;;;;;;;11.25;5.15;;;;;;;;;;5064289;28;20036;-58
2024/01/29 06:39:09;;;;;;;21.15;8.35;;;;;;;;;;5064816;28;20021;-59
2024/01/29 06:41:35;;;;;;;13.15;6.93;;;;;;;;;;5068353;28;20148;-59
2024/01/29 06:44:02;;;;;;;12.70;5.03;;;;;;;;;;5066195;28;20024;-57
2024/01/29 06:46:28;;;;;;;10.48;4.57;;;;;;;;;;5070197;28;20078;-56
2024/01/29 06:48:54;;;;;;;20.65;11.13;;;;;;;;;;5071781;28;20036;-56
2024/01/29 06:51:20;;;;;;;16.90;6.03;;;;;;;;;;5069775;28;20037;-56
2024/01/29 06:53:46;;;;;;;14.30;5.70;;;;;;;;;;5068871;28;20024;-58
2024/01/29 06:56:13;;;;;;;12.25;5.43;;;;;;;;;;5073628;28;20052;-56
2024/01/29 06:58:39;;;;;;;11.60;5.28;;;;;;;;;;5074482;28;20490;-56
2024/01/29 07:01:05;;;;;;;14.88;5.55;;;;;;;;;;5073763;28;20116;-57
2024/01/29 07:03:31;;;;;;;12.10;4.53;;;;;;;;;;5074507;28;20390;-59
2024/01/29 07:05:57;;;;;;;20.17;5.57;;;;;;;;;;5074621;28;20035;-56
2024/01/29 07:08:24;;;;;;;14.00;4.90;;;;;;;;;;5072783;28;20032;-56
2024/01/29 07:10:50;;;;;;;10.27;5.68;;;;;;;;;;5074397;28;20394;-56
2024/01/29 07:13:16;;;;;;;11.30;5.60;;;;;;;;;;5070432;28;20020;-61
2024/01/29 07:15:43;;;;;;;17.38;4.95;;;;;;;;;;5074819;28;20495;-56
2024/01/29 07:18:09;;;;;;;9.25;4.53;;;;;;;;;;5074515;28;20020;-60
2024/01/29 07:20:39;;;;;;;12.20;5.10;;;;;;;;;;5054153;28;20037;-55
2024/01/29 07:23:06;;;;;;;14.52;5.85;;;;;;;;;;5074005;28;20101;-58
2024/01/29 07:25:32;;;;;;;17.40;5.80;;;;;;;;;;5074010;28;20478;-56
2024/01/29 07:28:04;;;;;;;11.55;5.38;;;;;;;;;;5074159;28;20040;-57
2024/01/29 07:30:30;;;;;;;13.93;6.25;;;;;;;;;;5072302;28;20090;-57
2024/01/29 07:33:00;;;;;;;16.90;6.00;;;;;;;;;;5070855;28;20067;-56
2024/01/29 07:35:26;;;;;;;12.13;5.10;;;;;;;;;;5047427;28;20033;-56
2024/01/29 07:37:52;;;;;;;10.35;4.28;;;;;;;;;;5069806;28;20094;-59
2024/01/29 07:40:19;;;;;;;14.02;5.72;;;;;;;;;;5074057;28;20508;-57
2024/01/29 07:42:45;;;;;;;16.23;5.20;;;;;;;;;;5056160;28;20056;-57
2024/01/29 07:45:11;;;;;;;9.15;4.97;;;;;;;;;;5072636;28;20025;-56
2024/01/29 07:47:37;;;;;;;22.40;7.97;;;;;;;;;;5064031;28;20021;-57
2024/01/29 07:50:03;;;;;;;21.73;6.57;;;;;;;;;;5067153;28;20416;-57
2024/01/29 07:52:29;;;;;;;19.92;7.25;;;;;;;;;;5073527;28;20471;-57
2024/01/29 07:54:55;;;;;;;22.52;6.72;;;;;;;;;;5073574;28;20028;-57
2024/01/29 07:57:21;;;;;;;24.65;8.43;;;;;;;;;;5055889;28;20059;-58
2024/01/29 07:59:47;;;;;;;65.60;15.88;;;;;;;;;;5073723;28;20433;-58
2024/01/29 08:02:13;;;;;;;67.00;20.13;;;;;;;;;;5073707;28;20379;-59
2024/01/29 08:04:39;;;;;;;17.02;5.97;;;;;;;;;;5053357;28;20036;-58
2024/01/29 08:07:05;;;;;;;7.22;3.80;;;;;;;;;;5073276;28;20312;-58
2024/01/29 08:09:31;;;;;;;11.02;4.20;;;;;;;;;;5073710;28;20389;-58
2024/01/29 08:11:57;;;;;;;8.98;4.10;;;;;;;;;;5069667;28;20027;-58
2024/01/29 08:14:23;;;;;;;10.45;4.63;;;;;;;;;;5073311;28;20105;-58
2024/01/29 08:16:49;;;;;;;9.48;4.65;;;;;;;;;;5073317;28;20052;-58
2024/01/29 08:19:15;;;;;;;14.25;4.53;;;;;;;;;;5073586;28;20021;-58
2024/01/29 08:21:42;;;;;;;13.52;4.80;;;;;;;;;;5060112;28;20048;-58
2024/01/29 08:24:08;;;;;;;13.00;4.45;;;;;;;;;;5072868;28;20477;-58
2024/01/29 08:26:34;;;;;;;11.18;4.07;;;;;;;;;;5073300;28;20146;-58
2024/01/29 08:29:00;;;;;;;9.82;4.30;;;;;;;;;;5073353;28;20021;-58
2024/01/29 08:31:29;;;;;;;11.35;4.32;;;;;;;;;;5073246;28;20021;-58
2024/01/29 08:33:55;;;;;;;11.05;3.90;;;;;;;;;;5071804;28;20024;-58
2024/01/29 08:36:21;;;;;;;7.95;3.97;;;;;;;;;;5068442;28;20039;-58
2024/01/29 08:38:47;;;;;;;11.68;5.00;;;;;;;;;;5073157;28;20453;-58
2024/01/29 08:41:16;;;;;;;9.52;3.90;;;;;;;;;;5072890;28;20033;-58
2024/01/29 08:43:42;;;;;;;14.75;4.68;;;;;;;;;;5072732;28;20028;-59
2024/01/29 08:46:09;;;;;;;9.90;3.60;;;;;;;;;;5072921;28;20032;-58
2024/01/29 08:48:35;;;;;;;7.38;3.53;;;;;;;;;;5065606;28;20025;-61
2024/01/29 08:51:01;;;;;;;9.32;4.30;;;;;;;;;;5054752;28;20059;-57
2024/01/29 08:53:27;;;;;;;10.30;3.05;;;;;;;;;;5071867;28;20017;-60
2024/01/29 08:55:53;;;;;;;7.55;4.10;;;;;;;;;;5072415;28;20063;-57
2024/01/29 08:58:20;;;;;;;8.23;3.65;;;;;;;;;;5072828;28;20030;-59
2024/01/29 09:00:49;;;;;;;10.52;3.75;;;;;;;;;;5054436;28;20036;-58
2024/01/29 09:03:14;;;;;;;9.13;4.18;;;;;;;;;;5072182;28;20532;-58
2024/01/29 09:05:42;;;;;;;15.52;4.32;;;;;;;;;;5070116;28;20041;-61
2024/01/29 09:08:08;;;;;;;10.60;4.10;;;;;;;;;;5072419;28;20020;-60
2024/01/29 09:10:33;;;;;;;8.30;3.92;;;;;;;;;;5072292;28;20596;-61
2024/01/29 09:12:59;;;;;;;6.43;3.25;;;;;;;;;;5071787;28;20020;-60
2024/01/29 09:15:25;;;;;;;8.95;3.58;;;;;;;;;;5058484;28;20040;-61
2024/01/29 09:17:51;;;;;;;9.70;3.45;;;;;;;;;;5072098;28;20107;-60
2024/01/29 09:20:17;;;;;;;7.00;3.35;;;;;;;;;;5070421;28;20036;-62
2024/01/29 09:22:43;;;;;;;10.00;3.50;;;;;;;;;;5072025;28;20039;-60
2024/01/29 09:25:09;;;;;;;7.70;3.47;;;;;;;;;;5058687;28;20025;-60
2024/01/29 09:27:35;;;;;;;7.43;3.33;;;;;;;;;;5071981;28;20107;-61
2024/01/29 09:30:01;;;;;;;9.18;3.58;;;;;;;;;;5071887;28;20028;-61
2024/01/29 09:32:27;;;;;;;8.85;3.63;;;;;;;;;;5071894;28;20028;-60
2024/01/29 09:34:53;;;;;;;7.28;3.10;;;;;;;;;;5071515;28;20458;-62
2024/01/29 09:37:20;;;;;;;8.90;3.50;;;;;;;;;;5061651;28;20460;-60
2024/01/29 09:39:47;;;;;;;8.48;2.90;;;;;;;;;;5071540;28;20111;-60
2024/01/29 09:42:18;;;;;;;10.02;3.75;;;;;;;;;;5071753;28;20414;-58
2024/01/29 09:44:46;;;;;;;9.02;3.40;;;;;;;;;;5058703;28;20463;-60
2024/01/29 09:47:13;;;;;;;9.20;3.72;;;;;;;;;;5065135;28;20087;-59
2024/01/29 09:49:39;;;;;;;7.35;2.78;;;;;;;;;;5071564;28;20031;-62
2024/01/29 09:52:10;;;;;;;5.10;2.92;;;;;;;;;;5071581;28;20027;-60
2024/01/29 09:54:37;;;;;;;4.45;2.40;;;;;;;;;;5069363;28;20029;-60
2024/01/29 09:57:03;;;;;;;9.93;3.78;;;;;;;;;;5071349;28;20035;-59
2024/01/29 09:59:29;;;;;;;7.97;3.35;;;;;;;;;;5071242;28;20500;-60
2024/01/29 10:01:55;;;;;;;7.97;3.05;;;;;;;;;;5071308;28;20017;-59
2024/01/29 10:04:21;;;;;;;8.18;3.10;;;;;;;;;;5071081;28;20029;-59
2024/01/29 10:06:48;;;;;;;5.75;2.72;;;;;;;;;;5071587;28;20063;-61
2024/01/29 10:09:15;;;;;;;7.47;3.28;;;;;;;;;;5070329;28;20500;-63
2024/01/29 10:11:42;;;;;;;5.85;3.00;;;;;;;;;;5066534;28;20024;-61
2024/01/29 10:14:08;;;;;;;8.15;2.88;;;;;;;;;;5070770;28;20060;-61
2024/01/29 10:16:34;;;;;;;6.68;2.95;;;;;;;;;;5071408;28;20514;-64
2024/01/29 10:19:00;;;;;;;6.88;2.80;;;;;;;;;;5068682;28;20029;-64
2024/01/29 10:21:27;;;;;;;6.95;2.95;;;;;;;;;;5071272;28;20059;-66
2024/01/29 10:23:59;;;;;;;6.43;2.78;;;;;;;;;;5069638;28;20024;-67
2024/01/29 10:26:26;;;;;;;7.63;3.42;;;;;;;;;;5071087;28;20036;-63
2024/01/29 10:29:05;;;;;;;6.10;2.85;;;;;;;;;;5071240;28;20470;-63
2024/01/29 10:31:32;;;;;;;5.90;2.90;;;;;;;;;;5070868;28;20032;-63
2024/01/29 10:33:58;;;;;;;6.57;2.60;;;;;;;;;;5070682;28;20104;-64
2024/01/29 10:36:24;;;;;;;6.10;2.67;;;;;;;;;;5063525;28;20078;-64
2024/01/29 10:38:51;;;;;;;7.25;3.58;;;;;;;;;;5056126;28;20482;-64
2024/01/29 10:41:17;;;;;;;4.20;2.20;;;;;;;;;;5070671;28;20028;-64
2024/01/29 10:43:47;;;;;;;8.25;3.20;;;;;;;;;;5070833;28;20032;-65
2024/01/29 10:46:15;;;;;;;6.10;2.50;;;;;;;;;;5070937;28;20074;-64
2024/01/29 10:48:42;;;;;;;6.20;2.70;;;;;;;;;;5065671;28;20116;-63
2024/01/29 10:51:08;;;;;;;6.45;2.28;;;;;;;;;;5070974;28;20041;-62
2024/01/29 10:53:35;;;;;;;8.18;2.58;;;;;;;;;;5070191;28;20029;-66
2024/01/29 10:56:02;;;;;;;6.38;2.70;;;;;;;;;;5069043;28;20039;-64
2024/01/29 10:58:28;;;;;;;7.40;2.88;;;;;;;;;;5070788;28;20051;-65
2024/01/29 11:00:55;;;;;;;7.65;2.65;;;;;;;;;;5070945;28;20151;-66
2024/01/29 11:03:21;;;;;;;4.45;2.63;;;;;;;;;;5070270;28;20453;-65
2024/01/29 11:05:53;;;;;;;7.93;2.85;;;;;;;;;;5071364;28;20116;-66
2024/01/29 11:08:24;;;;;;;6.45;1.88;;;;;;;;;;5070187;28;20033;-66
2024/01/29 11:10:50;;;;;;;5.45;2.08;;;;;;;;;;5070709;28;20052;-65
2024/01/29 11:13:18;;;;;;;5.60;2.22;;;;;;;;;;5068822;28;20110;-66
2024/01/29 11:15:44;;;;;;;3.78;1.92;;;;;;;;;;5070835;28;20117;-66
2024/01/29 11:18:11;;;;;;;7.05;2.83;;;;;;;;;;5070376;28;20095;-66
2024/01/29 11:20:40;;;;;;;4.75;2.08;;;;;;;;;;5070686;28;20020;-66
2024/01/29 11:23:06;;;;;;;5.63;2.47;;;;;;;;;;5070338;28;20029;-67
2024/01/29 11:25:32;;;;;;;6.00;2.20;;;;;;;;;;5063919;28;20082;-61
2024/01/29 11:28:00;;;;;;;5.88;2.03;;;;;;;;;;5063984;28;20025;-61
2024/01/29 11:30:28;;;;;;;7.18;2.85;;;;;;;;;;5062089;28;20466;-61
2024/01/29 11:32:55;;;;;;;4.60;2.38;;;;;;;;;;5070349;28;20096;-61
2024/01/29 11:35:22;;;;;;;4.50;2.40;;;;;;;;;;5071473;28;20357;-61
2024/01/29 11:37:49;;;;;;;3.13;1.73;;;;;;;;;;5073978;28;20703;-61
2024/01/29 11:40:32;;;;;;;7.03;2.67;;;;;;;;;;5052039;28;20025;-60
2024/01/29 11:42:58;;;;;;;3.53;1.97;;;;;;;;;;5062296;28;20032;-61
2024/01/29 11:45:25;;;;;;;5.63;2.10;;;;;;;;;;5073837;28;20786;-61
2024/01/29 11:47:50;;;;;;;5.43;2.25;;;;;;;;;;5069186;28;20105;-60
2024/01/29 11:50:16;;;;;;;4.72;2.15;;;;;;;;;;5073863;28;20038;-60
2024/01/29 11:52:43;;;;;;;6.35;2.10;;;;;;;;;;5074023;28;20055;-60
2024/01/29 11:55:09;;;;;;;5.13;2.22;;;;;;;;;;5068241;28;20044;-60
2024/01/29 11:57:35;;;;;;;5.93;2.05;;;;;;;;;;5070829;28;20024;-61
2024/01/29 12:00:02;;;;;;;5.35;2.38;;;;;;;;;;5070305;28;20024;-60
2024/01/29 12:02:30;;;;;;;4.97;2.20;;;;;;;;;;5070651;28;20036;-60
2024/01/29 12:04:56;;;;;;;7.22;2.50;;;;;;;;;;5073350;28;20033;-60
2024/01/29 12:07:22;;;;;;;5.93;2.65;;;;;;;;;;5073681;28;20452;-60
2024/01/29 12:09:48;;;;;;;6.47;2.60;;;;;;;;;;5071402;28;20120;-60
2024/01/29 12:12:15;;;;;;;3.60;2.10;;;;;;;;;;5064857;28;20028;-60
2024/01/29 12:14:41;;;;;;;7.55;2.53;;;;;;;;;;5073022;28;20135;-60
2024/01/29 12:17:09;;;;;;;5.47;2.50;;;;;;;;;;5073403;28;20096;-60
2024/01/29 12:19:35;;;;;;;6.57;2.75;;;;;;;;;;5071906;28;20033;-61
2024/01/29 12:22:01;;;;;;;7.45;2.15;;;;;;;;;;5073456;28;20439;-60
2024/01/29 12:24:27;;;;;;;4.55;1.98;;;;;;;;;;5072599;28;20028;-61
2024/01/29 12:26:53;;;;;;;7.22;2.17;;;;;;;;;;5073096;28;20025;-61
2024/01/29 12:29:20;;;;;;;6.30;2.40;;;;;;;;;;5064451;28;20032;-61
2024/01/29 12:31:45;;;;;;;7.75;2.50;;;;;;;;;;5073413;28;20516;-60
2024/01/29 12:34:21;;;;;;;4.25;2.10;;;;;;;;;;5072031;28;20032;-60
2024/01/29 12:36:54;;;;;;;4.30;2.15;;;;;;;;;;5064850;28;20395;-59
2024/01/29 12:39:20;;;;;;;4.60;2.33;;;;;;;;;;5066848;28;20533;-59
2024/01/29 12:41:46;;;;;;;7.13;2.30;;;;;;;;;;5070545;28;20016;-57
2024/01/29 12:44:12;;;;;;;5.13;2.05;;;;;;;;;;5068835;28;20012;-57
2024/01/29 12:46:38;;;;;;;6.55;2.25;;;;;;;;;;5062137;28;20040;-59
2024/01/29 12:49:07;;;;;;;5.85;2.40;;;;;;;;;;5069255;28;20131;-59
2024/01/29 12:51:33;;;;;;;4.72;2.25;;;;;;;;;;5061671;28;20512;-59
2024/01/29 12:53:59;;;;;;;4.72;2.20;;;;;;;;;;5064795;28;20039;-60
2024/01/29 12:56:27;;;;;;;3.88;1.90;;;;;;;;;;5065852;28;20025;-59
2024/01/29 12:58:53;;;;;;;7.18;2.30;;;;;;;;;;5068220;28;20025;-59
2024/01/29 13:01:19;;;;;;;6.18;2.33;;;;;;;;;;5067565;28;20033;-59
2024/01/29 13:03:45;;;;;;;7.88;2.38;;;;;;;;;;5064534;28;20470;-58
2024/01/29 13:06:11;;;;;;;4.05;2.25;;;;;;;;;;5064667;28;20433;-58
2024/01/29 13:08:37;;;;;;;10.13;2.50;;;;;;;;;;5071871;28;20395;-58
2024/01/29 13:11:03;;;;;;;6.70;2.28;;;;;;;;;;5072277;28;20044;-57
2024/01/29 13:13:29;;;;;;;5.35;2.30;;;;;;;;;;5066446;28;20043;-58
2024/01/29 13:15:55;;;;;;;6.18;2.38;;;;;;;;;;5072096;28;20017;-58
2024/01/29 13:18:22;;;;;;;4.40;2.50;;;;;;;;;;5069789;28;20016;-59
2024/01/29 13:20:48;;;;;;;5.78;2.30;;;;;;;;;;5072215;28;20059;-58
2024/01/29 13:23:13;;;;;;;6.60;2.17;;;;;;;;;;5071818;28;20072;-58
2024/01/29 13:25:39;;;;;;;4.63;2.22;;;;;;;;;;5071686;28;20025;-58
2024/01/29 13:28:07;;;;;;;5.07;2.28;;;;;;;;;;5072054;28;20028;-58
2024/01/29 13:30:33;;;;;;;5.32;3.03;;;;;;;;;;5070175;28;20170;-58
2024/01/29 13:32:59;;;;;;;6.30;2.63;;;;;;;;;;5071509;28;20037;-58
2024/01/29 13:35:25;;;;;;;6.13;2.60;;;;;;;;;;5064619;28;20020;-57
2024/01/29 13:37:51;;;;;;;4.80;2.13;;;;;;;;;;5050833;28;20063;-58
2024/01/29 13:40:18;;;;;;;3.83;2.22;;;;;;;;;;5059527;28;20421;-58
2024/01/29 13:42:44;;;;;;;4.85;2.95;;;;;;;;;;5070945;28;20032;-57
2024/01/29 13:45:10;;;;;;;7.93;3.28;;;;;;;;;;5066599;28;20474;-58
2024/01/29 13:47:36;;;;;;;5.85;3.00;;;;;;;;;;5068463;28;20482;-60
2024/01/29 13:50:03;;;;;;;5.55;3.08;;;;;;;;;;5068613;28;20017;-60
2024/01/29 13:52:29;;;;;;;6.25;3.25;;;;;;;;;;5048189;28;20428;-60
2024/01/29 13:54:56;;;;;;;5.18;3.20;;;;;;;;;;5069787;28;20518;-60
2024/01/29 13:57:22;;;;;;;4.95;2.95;;;;;;;;;;5071263;28;20028;-60
2024/01/29 13:59:49;;;;;;;6.15;3.47;;;;;;;;;;5069578;28;20482;-61
2024/01/29 14:02:15;;;;;;;3.63;2.22;;;;;;;;;;5071767;28;20386;-61
2024/01/29 14:04:41;;;;;;;5.22;2.55;;;;;;;;;;5071082;28;20040;-61
2024/01/29 14:07:07;;;;;;;6.97;3.35;;;;;;;;;;5064313;28;20044;-61
2024/01/29 14:09:33;;;;;;;7.07;2.78;;;;;;;;;;5062684;28;20036;-60
2024/01/29 14:11:59;;;;;;;7.70;3.05;;;;;;;;;;5067949;28;20073;-61
2024/01/29 14:14:25;;;;;;;6.50;2.95;;;;;;;;;;5062176;28;20453;-60
2024/01/29 14:16:51;;;;;;;5.00;2.70;;;;;;;;;;5071391;28;20020;-61
2024/01/29 14:19:17;;;;;;;4.60;2.72;;;;;;;;;;5066847;28;20028;-61
2024/01/29 14:21:43;;;;;;;5.50;2.10;;;;;;;;;;5049831;28;20031;-61
2024/01/29 14:24:09;;;;;;;4.65;2.20;;;;;;;;;;5063245;28;20032;-61
2024/01/29 14:26:37;;;;;;;5.05;2.20;;;;;;;;;;5071392;28;20025;-61
2024/01/29 14:29:04;;;;;;;8.10;3.00;;;;;;;;;;5070975;28;20052;-61
2024/01/29 14:31:30;;;;;;;4.53;2.30;;;;;;;;;;5070834;28;20020;-61